Manor Ridge, Pennsylvania
Current Conditions -  °F | °C
As of 11:53 PM on Saturday 25 Oct 2014 (Local Time) from KLNS Reporting Station
Overcast Overcast  
Wind Chill: 60°   Ceiling: 5000
Heat Index: 60°   Visibility: 10mi
Dew Point: 45°   Wind: 6mph
Humidity: 57%   Direction: 300°WNW
Pressure: 29.64"   Gusts: NA
Location:  40.0115°N, 76.3553°W
Report Text: KLNS 260353Z AUTO 30005KT 10SM BKN050 OVC060 16/07 A2964 RMK AO2 SLP036 T01560072
Loading
Personal Weather Stations






























Interactive Weather Map
Tropical Storm Tracking
New forecast layout! Learn more

10-Day Weather Forecast

Advertisements
Track Severe Weather on mobile